Butter Tubs Pass, United Kingdom
Current Conditions -  °F | °C
As of 2:23 PM on Thursday 27 Nov 2014 (Local Time) from EGXE Reporting Station
Moderate Fog Moderate Fog  
Wind Chill: 46°   Ceiling: 100
Heat Index: 46°   Visibility: 0.43mi
Dew Point: 46°   Wind: 1mph
Humidity: 100%   Direction: 30°NNE
Pressure: 29.56"   Gusts: NA
Location:  54.37°N, 2.2°W
Report Text: EGXE 271423Z 03001KT 0700 FG OVC001 08/08 Q1001 RED TEMPO 1200 BR AMB
Loading
Personal Weather Stations






























Interactive Weather Map New forecast layout! Learn more

10-Day Weather Forecast

Advertisements
Track Severe Weather on mobile